Time;durP1;ratioP1;P1;durP2;ratioP2;P2;SDS_P1;SDS_P2;PMS_P1;PMS_P2;Temp;Humidity;BMP_temperature;BMP_pressure;BME280_temperature;BME280_humidity;BME280_pressure;Samples;Min_cycle;Max_cycle;Signal;HPM_P1;HPM_P2
2023/03/25 00:00:16;;;;;;;;;;;12.00;70.20;;;;;;4965926;28;21607;-74
2023/03/25 00:02:47;;;;;;;;;;;12.00;70.30;;;;;;4965509;28;19926;-76
2023/03/25 00:05:16;;;;;;;;;;;12.00;70.30;;;;;;4965927;28;19964;-76
2023/03/25 00:07:42;;;;;;;;;;;12.00;70.40;;;;;;4952495;28;20413;-75
2023/03/25 00:10:08;;;;;;;;;;;12.00;70.30;;;;;;4968220;28;20009;-75
2023/03/25 00:12:34;;;;;;;;;;;11.90;70.20;;;;;;4965721;28;20012;-75
2023/03/25 00:15:00;;;;;;;;;;;11.90;70.20;;;;;;4952465;28;20021;-76
2023/03/25 00:17:27;;;;;;;;;;;12.00;70.20;;;;;;4968683;28;19921;-75
2023/03/25 00:19:54;;;;;;;;;;;12.00;70.20;;;;;;4969669;28;20055;-75
2023/03/25 00:22:20;;;;;;;;;;;11.90;70.20;;;;;;4986429;28;20421;-75
2023/03/25 00:24:47;;;;;;;;;;;11.90;70.10;;;;;;4972672;28;19922;-75
2023/03/25 00:27:16;;;;;;;;;;;11.90;70.30;;;;;;4969804;28;20355;-75
2023/03/25 00:29:42;;;;;;;;;;;11.80;70.30;;;;;;4955179;28;19989;-76
2023/03/25 00:32:09;;;;;;;;;;;11.90;70.40;;;;;;4954708;28;20376;-77
2023/03/25 00:34:40;;;;;;;;;;;11.90;70.30;;;;;;4972011;28;19922;-76
2023/03/25 00:37:07;;;;;;;;;;;11.80;70.40;;;;;;4940307;28;19969;-76
2023/03/25 00:39:33;;;;;;;;;;;11.80;70.30;;;;;;4955657;28;19918;-76
2023/03/25 00:42:00;;;;;;;;;;;11.80;70.30;;;;;;4986976;28;19925;-75
2023/03/25 00:44:27;;;;;;;;;;;11.80;70.40;;;;;;4972060;28;20028;-75
2023/03/25 00:46:53;;;;;;;;;;;11.80;70.40;;;;;;4969370;28;20361;-75
2023/03/25 00:49:23;;;;;;;;;;;11.80;70.40;;;;;;4967608;28;19918;-75
2023/03/25 00:51:50;;;;;;;;;;;11.80;70.40;;;;;;4987487;28;19920;-75
2023/03/25 00:54:17;;;;;;;;;;;11.80;70.30;;;;;;4954071;28;19918;-75
2023/03/25 00:56:43;;;;;;;;;;;11.80;70.30;;;;;;4968918;28;20440;-75
2023/03/25 00:59:09;;;;;;;;;;;11.80;70.50;;;;;;4954741;28;19918;-75
2023/03/25 01:01:38;;;;;;;;;;;11.80;70.40;;;;;;4970222;28;19928;-76
2023/03/25 01:04:10;;;;;;;;;;;11.80;70.40;;;;;;4961642;28;20017;-75
2023/03/25 01:06:37;;;;;;;;;;;11.70;70.30;;;;;;4954065;28;19973;-75
2023/03/25 01:09:05;;;;;;;;;;;11.70;70.30;;;;;;4968933;28;20012;-76
2023/03/25 01:11:33;;;;;;;;;;;11.70;70.20;;;;;;4953843;28;19924;-75
2023/03/25 01:14:00;;;;;;;;;;;11.70;70.20;;;;;;4956315;28;19918;-76
2023/03/25 01:16:27;;;;;;;;;;;11.70;70.70;;;;;;4955345;28;19926;-75
2023/03/25 01:18:53;;;;;;;;;;;11.70;70.10;;;;;;4969341;28;20355;-75
2023/03/25 01:21:19;;;;;;;;;;;11.70;70.10;;;;;;4954729;28;19918;-75
2023/03/25 01:23:45;;;;;;;;;;;11.70;70.30;;;;;;4962927;28;20365;-75
2023/03/25 01:26:14;;;;;;;;;;;11.70;70.30;;;;;;4968678;28;19976;-75
2023/03/25 01:28:40;;;;;;;;;;;11.70;70.30;;;;;;4967745;28;20389;-75
2023/03/25 01:31:07;;;;;;;;;;;11.70;70.10;;;;;;4953977;28;20016;-75
2023/03/25 01:33:33;;;;;;;;;;;11.60;70.10;;;;;;4961299;28;21197;-75
2023/03/25 01:35:59;;;;;;;;;;;11.70;70.20;;;;;;4968365;28;19957;-75
2023/03/25 01:38:25;;;;;;;;;;;11.70;70.20;;;;;;4968199;28;20013;-75
2023/03/25 01:40:52;;;;;;;;;;;11.70;70.20;;;;;;4954392;28;20400;-75
2023/03/25 01:43:19;;;;;;;;;;;11.60;70.80;;;;;;4953488;28;19918;-75
2023/03/25 01:45:45;;;;;;;;;;;11.60;70.10;;;;;;4954415;28;20025;-75
2023/03/25 01:48:14;;;;;;;;;;;11.60;70.00;;;;;;4968272;28;19925;-75
2023/03/25 01:50:42;;;;;;;;;;;11.60;70.10;;;;;;4954999;28;19918;-75
2023/03/25 01:53:09;;;;;;;;;;;11.60;70.10;;;;;;4954816;28;19918;-76
2023/03/25 01:55:35;;;;;;;;;;;11.60;70.10;;;;;;4968373;28;20320;-75
2023/03/25 01:58:04;;;;;;;;;;;11.60;70.20;;;;;;4986425;28;20389;-76
2023/03/25 02:00:30;;;;;;;;;;;11.60;70.40;;;;;;4951007;28;19910;-76
2023/03/25 02:02:57;;;;;;;;;;;11.60;70.40;;;;;;4953723;28;19929;-75
2023/03/25 02:05:49;;;;;;;;;;;11.50;71.00;;;;;;4951814;28;19918;-75
2023/03/25 02:08:15;;;;;;;;;;;11.50;70.50;;;;;;4937273;28;19922;-75
2023/03/25 02:10:44;;;;;;;;;;;11.50;70.50;;;;;;4985770;28;19952;-75
2023/03/25 02:13:10;;;;;;;;;;;11.50;70.40;;;;;;4967702;28;19921;-75
2023/03/25 02:16:05;;;;;;;;;;;11.50;70.50;;;;;;4953542;28;20362;-75
2023/03/25 02:18:46;;;;;;;;;;;11.50;70.50;;;;;;4971783;28;19966;-75
2023/03/25 02:21:24;;;;;;;;;;;11.50;70.70;;;;;;4948968;28;20505;-75
2023/03/25 02:24:06;;;;;;;;;;;11.50;70.60;;;;;;4967234;28;20386;-75
2023/03/25 02:26:40;;;;;;;;;;;11.50;70.60;;;;;;4952903;28;20024;-75
2023/03/25 02:29:25;;;;;;;;;;;11.50;70.60;;;;;;4967863;28;19926;-75
2023/03/25 02:32:09;;;;;;;;;;;11.50;70.50;;;;;;4970155;28;20457;-75
2023/03/25 02:34:47;;;;;;;;;;;11.50;70.60;;;;;;4967574;28;19918;-74
2023/03/25 02:37:28;;;;;;;;;;;11.40;70.50;;;;;;4984383;28;19960;-75
2023/03/25 02:39:59;;;;;;;;;;;11.50;70.80;;;;;;4953339;28;19914;-74
2023/03/25 02:42:31;;;;;;;;;;;11.50;70.80;;;;;;4953337;28;19922;-75
2023/03/25 02:45:16;;;;;;;;;;;11.50;70.80;;;;;;4983946;28;19928;-75
2023/03/25 02:47:45;;;;;;;;;;;11.50;70.80;;;;;;4953411;28;19929;-75
2023/03/25 02:50:43;;;;;;;;;;;11.40;70.80;;;;;;4967076;28;20009;-75
2023/03/25 02:53:12;;;;;;;;;;;11.40;70.80;;;;;;4906956;29;20418;-75
2023/03/25 02:55:40;;;;;;;;;;;11.40;70.80;;;;;;4890688;29;19923;-76
2023/03/25 02:58:08;;;;;;;;;;;11.40;70.80;;;;;;4891420;29;20355;-76
2023/03/25 03:00:37;;;;;;;;;;;11.50;70.90;;;;;;4907095;29;19923;-76
2023/03/25 03:03:04;;;;;;;;;;;11.40;70.90;;;;;;4906995;29;19958;-76
2023/03/25 03:05:32;;;;;;;;;;;11.40;70.90;;;;;;4876438;29;20341;-76
2023/03/25 03:08:18;;;;;;;;;;;11.40;70.90;;;;;;4890735;29;19942;-76
2023/03/25 03:10:53;;;;;;;;;;;11.40;71.00;;;;;;4907014;29;19919;-76
2023/03/25 03:13:27;;;;;;;;;;;11.40;71.00;;;;;;4906154;29;19919;-75
2023/03/25 03:15:57;;;;;;;;;;;11.50;71.00;;;;;;4906787;29;19926;-75
2023/03/25 03:18:43;;;;;;;;;;;11.50;70.90;;;;;;4906709;29;19919;-76
2023/03/25 03:21:22;;;;;;;;;;;11.50;71.10;;;;;;4906908;29;19919;-76
2023/03/25 03:23:47;;;;;;;;;;;11.40;71.10;;;;;;4890929;29;19923;-76
2023/03/25 03:26:19;;;;;;;;;;;11.40;71.00;;;;;;4906773;29;20581;-76
2023/03/25 03:28:47;;;;;;;;;;;11.50;71.10;;;;;;4950485;28;19922;-76
2023/03/25 03:31:23;;;;;;;;;;;11.50;71.20;;;;;;4964858;28;20413;-76
2023/03/25 03:33:56;;;;;;;;;;;11.40;71.00;;;;;;4952521;28;19910;-75
2023/03/25 03:36:27;;;;;;;;;;;11.50;71.10;;;;;;4966612;28;20412;-75
2023/03/25 03:38:57;;;;;;;;;;;11.40;71.10;;;;;;4965906;28;19941;-75
2023/03/25 03:41:25;;;;;;;;;;;11.40;71.20;;;;;;4966674;28;19930;-75
2023/03/25 03:43:54;;;;;;;;;;;11.40;71.10;;;;;;4951264;28;20044;-75
2023/03/25 03:46:23;;;;;;;;;;;11.50;71.20;;;;;;4963821;28;20322;-76
2023/03/25 03:48:56;;;;;;;;;;;11.40;71.00;;;;;;4965682;28;19918;-75
2023/03/25 03:51:28;;;;;;;;;;;11.50;70.90;;;;;;4969241;28;19981;-75
2023/03/25 03:53:57;;;;;;;;;;;11.50;71.20;;;;;;4972464;28;19929;-75
2023/03/25 03:56:35;;;;;;;;;;;11.50;71.10;;;;;;4957818;28;19918;-75
2023/03/25 03:59:04;;;;;;;;;;;11.50;71.20;;;;;;4972855;28;19918;-76
2023/03/25 04:01:44;;;;;;;;;;;11.50;71.10;;;;;;4970530;28;19933;-75
2023/03/25 04:04:12;;;;;;;;;;;11.50;71.20;;;;;;4971965;28;19976;-76
2023/03/25 04:06:40;;;;;;;;;;;11.50;71.20;;;;;;4972772;28;19969;-75
2023/03/25 04:09:17;;;;;;;;;;;11.50;71.10;;;;;;4972561;28;19918;-76
2023/03/25 04:11:45;;;;;;;;;;;11.50;71.10;;;;;;4972754;28;19949;-76
2023/03/25 04:14:12;;;;;;;;;;;11.50;71.00;;;;;;4972559;28;20008;-76
2023/03/25 04:16:38;;;;;;;;;;;11.50;71.00;;;;;;4971977;28;20911;-76
2023/03/25 04:19:04;;;;;;;;;;;11.50;71.00;;;;;;4972159;28;19929;-76
2023/03/25 04:21:30;;;;;;;;;;;11.50;71.00;;;;;;4973112;28;19910;-75
2023/03/25 04:24:00;;;;;;;;;;;11.50;71.10;;;;;;4971818;28;19922;-75
2023/03/25 04:26:28;;;;;;;;;;;11.50;70.70;;;;;;4976033;28;19929;-75
2023/03/25 04:28:58;;;;;;;;;;;11.50;71.60;;;;;;4972444;28;20263;-75
2023/03/25 04:31:24;;;;;;;;;;;11.50;71.00;;;;;;4957980;28;19926;-75
2023/03/25 04:33:50;;;;;;;;;;;11.50;71.10;;;;;;4972771;28;19920;-75
2023/03/25 04:36:16;;;;;;;;;;;11.50;70.90;;;;;;4972015;28;19918;-75
2023/03/25 04:38:44;;;;;;;;;;;11.50;71.10;;;;;;4972169;28;19917;-76
2023/03/25 04:41:10;;;;;;;;;;;11.50;70.90;;;;;;4972442;28;19949;-76
2023/03/25 04:43:40;;;;;;;;;;;11.60;71.00;;;;;;4970828;28;19918;-75
2023/03/25 04:46:09;;;;;;;;;;;11.60;70.90;;;;;;4972362;28;20234;-75
2023/03/25 04:48:40;;;;;;;;;;;11.60;71.40;;;;;;4972570;28;19918;-75
2023/03/25 04:51:09;;;;;;;;;;;11.60;71.30;;;;;;4972311;28;20534;-75
2023/03/25 04:53:35;;;;;;;;;;;11.60;71.20;;;;;;4957182;28;19922;-75
2023/03/25 04:56:03;;;;;;;;;;;11.60;71.20;;;;;;4957938;28;19918;-75
2023/03/25 04:58:29;;;;;;;;;;;11.60;71.10;;;;;;4988962;28;19918;-75
2023/03/25 05:00:55;;;;;;;;;;;11.60;71.50;;;;;;4971384;28;20073;-74
2023/03/25 05:03:24;;;;;;;;;;;11.60;71.30;;;;;;4969593;28;20365;-76
2023/03/25 05:05:50;;;;;;;;;;;11.60;71.20;;;;;;4969146;28;19922;-76
2023/03/25 05:08:17;;;;;;;;;;;11.60;71.50;;;;;;4961277;28;19921;-75
2023/03/25 05:10:43;;;;;;;;;;;11.60;71.50;;;;;;4968876;28;19953;-75
2023/03/25 05:13:09;;;;;;;;;;;11.60;71.40;;;;;;4968862;28;20410;-76
2023/03/25 05:15:38;;;;;;;;;;;11.60;71.30;;;;;;4959011;28;20310;-75
2023/03/25 05:18:14;;;;;;;;;;;11.70;71.10;;;;;;4967390;28;20033;-76
2023/03/25 05:20:41;;;;;;;;;;;11.60;71.00;;;;;;4967218;28;19968;-75
2023/03/25 05:23:11;;;;;;;;;;;11.60;71.30;;;;;;4952292;28;19925;-75
2023/03/25 05:25:37;;;;;;;;;;;11.60;71.40;;;;;;4962914;28;19922;-74
2023/03/25 05:28:04;;;;;;;;;;;11.70;71.60;;;;;;4966992;28;19918;-76
2023/03/25 05:30:38;;;;;;;;;;;11.70;71.60;;;;;;4956518;28;20461;-76
2023/03/25 05:33:04;;;;;;;;;;;11.70;71.70;;;;;;4967823;28;19918;-75
2023/03/25 05:35:30;;;;;;;;;;;11.70;71.50;;;;;;4968034;28;20377;-75
2023/03/25 05:37:56;;;;;;;;;;;11.70;71.60;;;;;;4967297;28;19929;-75
2023/03/25 05:40:22;;;;;;;;;;;11.70;71.60;;;;;;4965444;28;20017;-76
2023/03/25 05:42:48;;;;;;;;;;;11.70;71.50;;;;;;4966821;28;19925;-76
2023/03/25 05:45:15;;;;;;;;;;;11.70;71.30;;;;;;4953564;28;19918;-74
2023/03/25 05:47:41;;;;;;;;;;;11.70;71.50;;;;;;4967604;28;19969;-76
2023/03/25 05:50:07;;;;;;;;;;;11.70;71.70;;;;;;4967867;28;20024;-77
2023/03/25 05:52:33;;;;;;;;;;;11.80;71.80;;;;;;4964387;28;20571;-76
2023/03/25 05:54:59;;;;;;;;;;;11.80;71.80;;;;;;4966369;28;20056;-74
2023/03/25 05:57:24;;;;;;;;;;;11.80;71.70;;;;;;4966963;28;20324;-75
2023/03/25 05:59:50;;;;;;;;;;;11.80;71.80;;;;;;4966804;28;19918;-76
2023/03/25 06:02:16;;;;;;;;;;;11.80;71.90;;;;;;4966785;28;20518;-74
2023/03/25 06:04:43;;;;;;;;;;;11.80;72.50;;;;;;4966172;28;19968;-75
2023/03/25 06:07:21;;;;;;;;;;;11.80;72.10;;;;;;4948104;28;20021;-75
2023/03/25 06:09:47;;;;;;;;;;;11.80;72.00;;;;;;4967146;28;20000;-76
2023/03/25 06:12:18;;;;;;;;;;;11.80;72.20;;;;;;4966460;28;20440;-75
2023/03/25 06:14:45;;;;;;;;;;;11.90;72.30;;;;;;4966168;28;20381;-75
2023/03/25 06:17:14;;;;;;;;;;;11.90;72.40;;;;;;4966479;28;20588;-75
2023/03/25 06:19:40;;;;;;;;;;;11.90;72.10;;;;;;4962900;28;20205;-76
2023/03/25 06:22:08;;;;;;;;;;;11.90;72.10;;;;;;4966497;28;19914;-74
2023/03/25 06:24:35;;;;;;;;;;;11.90;72.20;;;;;;4966828;28;20353;-77
2023/03/25 06:27:00;;;;;;;;;;;11.90;72.20;;;;;;4966079;28;20491;-75
2023/03/25 06:29:26;;;;;;;;;;;11.90;72.40;;;;;;4965927;28;19917;-73
2023/03/25 06:31:52;;;;;;;;;;;12.00;72.20;;;;;;4966221;28;19922;-75
2023/03/25 06:34:18;;;;;;;;;;;12.00;72.30;;;;;;4965404;28;20408;-75
2023/03/25 06:36:44;;;;;;;;;;;12.00;72.40;;;;;;4966689;28;19921;-78
2023/03/25 06:39:10;;;;;;;;;;;12.00;72.40;;;;;;4963461;28;20444;-82
2023/03/25 06:41:36;;;;;;;;;;;12.00;72.50;;;;;;4950580;28;20404;-79
2023/03/25 06:44:14;;;;;;;;;;;12.10;72.90;;;;;;4981856;28;20389;-79
2023/03/25 06:46:45;;;;;;;;;;;12.10;73.00;;;;;;4966662;28;19933;-78
2023/03/25 06:49:31;;;;;;;;;;;12.10;73.00;;;;;;4963162;28;19918;-78
2023/03/25 06:51:58;;;;;;;;;;;12.10;73.10;;;;;;4951078;28;20958;-78
2023/03/25 06:54:24;;;;;;;;;;;12.10;73.00;;;;;;4967072;28;19918;-80
2023/03/25 06:56:50;;;;;;;;;;;12.10;72.90;;;;;;4967226;28;20752;-77
2023/03/25 06:59:16;;;;;;;;;;;12.10;72.80;;;;;;4968136;28;19932;-76
2023/03/25 07:01:41;;;;;;;;;;;12.20;73.00;;;;;;4953562;28;20356;-76
2023/03/25 07:04:07;;;;;;;;;;;12.10;73.10;;;;;;4967203;28;19918;-77
2023/03/25 07:06:33;;;;;;;;;;;12.20;73.10;;;;;;4966549;28;19988;-78
2023/03/25 07:08:59;;;;;;;;;;;12.20;73.30;;;;;;4968254;28;19918;-82
2023/03/25 07:11:27;;;;;;;;;;;12.20;73.40;;;;;;4967330;28;20022;-81
2023/03/25 07:13:53;;;;;;;;;;;12.20;73.40;;;;;;4967555;28;20005;-84
2023/03/25 07:16:20;;;;;;;;;;;12.20;73.70;;;;;;4968771;28;20100;-85
2023/03/25 07:21:30;;;;;;;;;;;12.20;74.10;;;;;;4952465;28;19968;-82
2023/03/25 07:23:56;;;;;;;;;;;12.20;74.80;;;;;;4980737;28;19958;-82
2023/03/25 07:32:10;;;;;;;;;;;12.20;75.10;;;;;;4967089;28;20428;-88
2023/03/25 07:34:36;;;;;;;;;;;12.30;75.00;;;;;;4965181;28;19922;-83
2023/03/25 07:37:02;;;;;;;;;;;12.30;75.40;;;;;;4956380;28;19976;-91
2023/03/25 07:39:28;;;;;;;;;;;12.30;75.40;;;;;;4968064;28;20388;-81
2023/03/25 07:41:54;;;;;;;;;;;12.30;75.20;;;;;;4967713;28;19956;-85
2023/03/25 07:44:28;;;;;;;;;;;12.30;75.40;;;;;;4952270;28;19929;-86
2023/03/25 07:47:13;;;;;;;;;;;12.30;75.50;;;;;;4966279;28;20469;-82
2023/03/25 07:49:58;;;;;;;;;;;12.30;75.40;;;;;;4965902;28;19918;-80
2023/03/25 07:52:42;;;;;;;;;;;12.30;75.30;;;;;;4951698;28;19954;-79
2023/03/25 07:55:08;;;;;;;;;;;12.30;75.50;;;;;;4951918;28;19918;-79
2023/03/25 07:57:34;;;;;;;;;;;12.30;75.60;;;;;;4952682;28;19914;-84
2023/03/25 08:00:00;;;;;;;;;;;12.30;75.30;;;;;;4968349;28;19990;-82
2023/03/25 08:02:26;;;;;;;;;;;12.30;75.60;;;;;;4952535;28;20028;-83
2023/03/25 08:04:53;;;;;;;;;;;12.30;75.60;;;;;;4952726;28;19918;-83
2023/03/25 08:07:20;;;;;;;;;;;12.40;75.70;;;;;;4969433;28;20003;-80
2023/03/25 08:09:46;;;;;;;;;;;12.40;75.50;;;;;;4955820;28;19936;-82
2023/03/25 08:12:11;;;;;;;;;;;12.40;75.30;;;;;;4945277;28;20460;-79
2023/03/25 08:14:37;;;;;;;;;;;12.40;75.40;;;;;;4982962;28;19926;-80
2023/03/25 08:17:04;;;;;;;;;;;12.40;75.60;;;;;;4969103;28;19969;-82
2023/03/25 08:19:30;;;;;;;;;;;12.40;75.40;;;;;;4950737;28;20301;-79
2023/03/25 08:21:56;;;;;;;;;;;12.40;75.80;;;;;;4951930;28;19918;-78
2023/03/25 08:24:23;;;;;;;;;;;12.40;75.80;;;;;;4982409;28;19917;-79
2023/03/25 08:26:49;;;;;;;;;;;12.40;75.70;;;;;;4947924;28;19957;-80
2023/03/25 08:29:16;;;;;;;;;;;12.40;76.00;;;;;;4993035;28;19922;-82
2023/03/25 08:32:01;;;;;;;;;;;12.40;75.90;;;;;;4932505;29;19976;-85
2023/03/25 08:34:28;;;;;;;;;;;12.40;75.80;;;;;;4933113;28;19954;-85
2023/03/25 08:36:54;;;;;;;;;;;12.40;76.70;;;;;;4938074;29;19924;-85
2023/03/25 08:39:20;;;;;;;;;;;12.50;76.00;;;;;;4936265;29;19918;-85
2023/03/25 08:41:46;;;;;;;;;;;12.50;75.90;;;;;;4934195;28;19945;-83
2023/03/25 08:44:12;;;;;;;;;;;12.50;76.20;;;;;;4940940;28;19922;-81
2023/03/25 08:46:38;;;;;;;;;;;12.50;76.10;;;;;;4949455;28;19926;-80
2023/03/25 08:49:04;;;;;;;;;;;12.50;76.40;;;;;;4931740;28;20333;-82
2023/03/25 08:51:29;;;;;;;;;;;12.50;77.10;;;;;;4947832;28;20342;-81
2023/03/25 08:53:55;;;;;;;;;;;12.50;76.60;;;;;;4947465;28;20005;-80
2023/03/25 08:56:40;;;;;;;;;;;12.50;76.90;;;;;;4946662;28;19918;-78
2023/03/25 08:59:05;;;;;;;;;;;12.50;77.10;;;;;;4945313;29;20667;-80
2023/03/25 09:01:50;;;;;;;;;;;12.50;77.10;;;;;;4946722;28;19922;-78
2023/03/25 09:04:16;;;;;;;;;;;12.50;77.30;;;;;;4947769;28;20341;-80
2023/03/25 09:06:42;;;;;;;;;;;12.50;77.40;;;;;;4959661;28;19918;-81
2023/03/25 09:09:10;;;;;;;;;;;12.50;77.60;;;;;;4947749;29;19941;-76
2023/03/25 09:11:37;;;;;;;;;;;12.50;77.60;;;;;;4947958;28;19979;-80
2023/03/25 09:14:03;;;;;;;;;;;12.50;77.90;;;;;;4947920;28;19925;-81
2023/03/25 09:16:32;;;;;;;;;;;12.60;78.80;;;;;;4948159;28;20354;-81
2023/03/25 09:22:00;;;;;;;;;;;12.60;78.00;;;;;;4928820;28;19914;-79
2023/03/25 09:24:45;;;;;;;;;;;12.60;78.30;;;;;;4913025;29;19937;-79
2023/03/25 09:27:29;;;;;;;;;;;12.60;78.10;;;;;;4947774;29;19969;-82
2023/03/25 09:29:55;;;;;;;;;;;12.60;78.30;;;;;;4950702;28;20024;-81
2023/03/25 09:32:21;;;;;;;;;;;12.60;78.10;;;;;;4951289;28;19954;-80
2023/03/25 09:34:47;;;;;;;;;;;12.60;78.80;;;;;;4967000;28;19994;-79
2023/03/25 09:37:13;;;;;;;;;;;12.70;78.80;;;;;;4951460;28;19925;-82
2023/03/25 09:39:39;;;;;;;;;;;12.70;78.90;;;;;;4967257;28;19956;-80
2023/03/25 09:42:11;;;;;;;;;;;12.70;78.80;;;;;;4967868;28;19922;-77
2023/03/25 09:44:46;;;;;;;;;;;12.70;78.90;;;;;;4966489;28;19918;-85
2023/03/25 09:52:49;;;;;;;;;;;12.90;81.10;;;;;;4965865;28;19918;-78
2023/03/25 10:01:25;;;;;;;;;;;13.20;81.80;;;;;;4965229;28;19914;-75
2023/03/25 10:04:09;;;;;;;;;;;13.20;81.30;;;;;;4905037;29;20638;-75
2023/03/25 10:06:41;;;;;;;;;;;13.20;80.30;;;;;;4905390;29;20027;-76
2023/03/25 10:09:22;;;;;;;;;;;13.20;79.70;;;;;;4890150;29;19925;-75
2023/03/25 10:12:02;;;;;;;;;;;13.20;79.40;;;;;;4905915;29;19919;-80
2023/03/25 10:14:34;;;;;;;;;;;13.20;79.20;;;;;;4891138;29;20402;-80
2023/03/25 10:17:12;;;;;;;;;;;13.20;79.30;;;;;;4906414;29;19919;-81
2023/03/25 10:19:57;;;;;;;;;;;13.20;79.10;;;;;;4905233;29;19942;-79
2023/03/25 10:22:29;;;;;;;;;;;13.20;78.90;;;;;;4890354;29;19966;-81
2023/03/25 10:25:33;;;;;;;;;;;13.20;79.10;;;;;;4913404;29;19915;-81
2023/03/25 10:27:59;;;;;;;;;;;13.20;79.00;;;;;;4905482;29;20428;-86
2023/03/25 10:30:35;;;;;;;;;;;13.20;79.00;;;;;;4905162;29;19933;-84
2023/03/25 10:33:03;;;;;;;;;;;13.30;79.00;;;;;;4904445;29;19987;-86
2023/03/25 10:35:29;;;;;;;;;;;13.30;79.40;;;;;;4904734;29;19926;-81
2023/03/25 10:37:59;;;;;;;;;;;13.30;79.40;;;;;;4904159;29;19919;-82
2023/03/25 10:40:38;;;;;;;;;;;13.30;79.40;;;;;;4927630;28;19918;-86
2023/03/25 10:43:22;;;;;;;;;;;13.30;79.30;;;;;;4965719;28;19924;-80
2023/03/25 10:45:50;;;;;;;;;;;13.30;79.10;;;;;;4965971;28;19973;-78
2023/03/25 10:48:21;;;;;;;;;;;13.30;79.10;;;;;;4950610;28;19925;-77
2023/03/25 10:50:49;;;;;;;;;;;13.30;78.90;;;;;;4966828;28;19918;-81
2023/03/25 10:53:25;;;;;;;;;;;13.30;79.10;;;;;;4964593;28;20301;-82
2023/03/25 10:55:54;;;;;;;;;;;13.30;79.10;;;;;;4982010;28;19922;-81
2023/03/25 10:58:40;;;;;;;;;;;13.30;79.10;;;;;;4967838;28;20384;-77
2023/03/25 11:01:13;;;;;;;;;;;13.30;79.10;;;;;;4961703;28;19925;-79
2023/03/25 11:03:40;;;;;;;;;;;13.30;79.70;;;;;;4983271;28;19964;-79
2023/03/25 11:06:06;;;;;;;;;;;13.40;79.20;;;;;;4951261;28;20484;-84
2023/03/25 11:08:32;;;;;;;;;;;13.30;79.10;;;;;;4958925;28;20099;-77
2023/03/25 11:10:59;;;;;;;;;;;13.40;79.30;;;;;;4944327;28;20337;-79
2023/03/25 11:13:29;;;;;;;;;;;13.40;79.30;;;;;;4959494;28;20286;-80
2023/03/25 11:15:57;;;;;;;;;;;13.40;79.30;;;;;;4961170;28;19918;-80
2023/03/25 11:18:43;;;;;;;;;;;13.40;79.20;;;;;;4959881;28;20248;-89
2023/03/25 11:21:10;;;;;;;;;;;13.40;79.20;;;;;;4980291;28;19918;-79
2023/03/25 11:26:29;;;;;;;;;;;13.50;79.20;;;;;;4964124;28;19953;-82
2023/03/25 11:29:04;;;;;;;;;;;13.50;79.30;;;;;;4962183;28;20053;-80
2023/03/25 11:31:33;;;;;;;;;;;13.50;79.30;;;;;;4945827;28;20393;-83
2023/03/25 11:34:19;;;;;;;;;;;13.50;79.30;;;;;;4962510;28;19957;-82
2023/03/25 11:36:59;;;;;;;;;;;13.50;79.30;;;;;;4960960;28;20171;-85
2023/03/25 11:39:31;;;;;;;;;;;13.50;79.30;;;;;;4979404;28;19922;-80
2023/03/25 11:41:57;;;;;;;;;;;13.50;79.50;;;;;;4961153;28;20000;-83
2023/03/25 11:44:23;;;;;;;;;;;13.60;79.50;;;;;;4961542;28;19926;-83
2023/03/25 11:46:51;;;;;;;;;;;13.50;79.50;;;;;;4961771;28;19928;-83
2023/03/25 11:49:19;;;;;;;;;;;13.50;79.50;;;;;;4959276;28;20004;-84
2023/03/25 11:51:45;;;;;;;;;;;13.60;79.60;;;;;;4948904;28;19921;-81
2023/03/25 11:54:31;;;;;;;;;;;13.60;79.60;;;;;;4961703;28;20006;-81
2023/03/25 11:56:57;;;;;;;;;;;13.60;79.50;;;;;;4961802;28;19968;-80
2023/03/25 11:59:22;;;;;;;;;;;13.60;79.50;;;;;;4948095;28;19969;-82
2023/03/25 12:02:28;;;;;;;;;;;13.60;79.60;;;;;;4962558;28;19918;-87
2023/03/25 12:05:03;;;;;;;;;;;13.60;79.70;;;;;;4962188;28;19957;-83
2023/03/25 12:07:39;;;;;;;;;;;13.60;79.70;;;;;;4962465;28;20325;-84
2023/03/25 12:10:05;;;;;;;;;;;13.60;79.70;;;;;;4961677;28;19918;-87
2023/03/25 12:12:31;;;;;;;;;;;13.60;79.60;;;;;;4966230;28;19925;-84
2023/03/25 12:15:06;;;;;;;;;;;13.70;79.50;;;;;;4966577;28;19918;-81
2023/03/25 12:20:38;;;;;;;;;;;13.70;79.00;;;;;;4964755;28;20259;-84
2023/03/25 12:23:23;;;;;;;;;;;13.60;78.90;;;;;;4964931;28;19928;-76
2023/03/25 12:25:52;;;;;;;;;;;13.70;78.70;;;;;;4954782;28;19922;-80
2023/03/25 12:28:41;;;;;;;;;;;13.70;78.70;;;;;;4965530;28;19961;-79
2023/03/25 12:31:32;;;;;;;;;;;13.60;78.90;;;;;;4945252;28;19922;-81
2023/03/25 12:34:21;;;;;;;;;;;13.70;79.40;;;;;;4955107;28;19914;-81
2023/03/25 12:37:04;;;;;;;;;;;13.70;79.70;;;;;;4958798;28;19942;-92
2023/03/25 12:39:33;;;;;;;;;;;13.70;79.40;;;;;;4968081;28;20016;-85
2023/03/25 12:42:11;;;;;;;;;;;13.70;79.10;;;;;;4968152;28;20294;-79
2023/03/25 12:44:43;;;;;;;;;;;13.70;78.70;;;;;;4966330;28;19922;-80
2023/03/25 12:47:22;;;;;;;;;;;13.70;78.70;;;;;;4967515;28;19926;-80
2023/03/25 12:53:06;;;;;;;;;;;13.70;78.70;;;;;;4974291;28;19918;-81
2023/03/25 12:55:35;;;;;;;;;;;13.70;78.70;;;;;;4954084;28;20035;-78
2023/03/25 12:58:01;;;;;;;;;;;13.70;78.80;;;;;;4938131;28;20013;-82
2023/03/25 13:00:46;;;;;;;;;;;13.70;78.90;;;;;;4938516;28;19978;-81
2023/03/25 13:03:23;;;;;;;;;;;13.70;78.70;;;;;;4970223;28;19981;-82
2023/03/25 13:05:55;;;;;;;;;;;13.70;78.70;;;;;;4937366;28;20301;-82
2023/03/25 13:08:41;;;;;;;;;;;13.70;78.70;;;;;;4967900;28;19937;-83
2023/03/25 13:11:21;;;;;;;;;;;13.70;78.70;;;;;;4968676;28;20420;-94
2023/03/25 13:13:48;;;;;;;;;;;13.70;78.60;;;;;;4935566;28;19925;-92
2023/03/25 13:16:24;;;;;;;;;;;13.80;78.60;;;;;;4951584;28;19914;-78
2023/03/25 13:19:26;;;;;;;;;;;13.70;78.70;;;;;;4964252;28;19921;-78
2023/03/25 13:21:54;;;;;;;;;;;13.80;78.60;;;;;;4980767;28;19917;-82
2023/03/25 13:24:43;;;;;;;;;;;13.80;78.70;;;;;;4949614;28;20409;-85
2023/03/25 13:27:27;;;;;;;;;;;13.80;78.60;;;;;;4968091;28;20313;-85
2023/03/25 13:29:54;;;;;;;;;;;13.80;78.50;;;;;;4934894;28;19977;-81
2023/03/25 13:32:46;;;;;;;;;;;13.80;78.50;;;;;;4935181;28;19926;-88
2023/03/25 13:35:31;;;;;;;;;;;13.80;78.30;;;;;;4964934;28;19922;-81
2023/03/25 13:37:58;;;;;;;;;;;13.80;79.40;;;;;;4983200;28;19922;-84
2023/03/25 13:40:24;;;;;;;;;;;13.90;80.60;;;;;;4945137;28;19934;-83
2023/03/25 13:43:12;;;;;;;;;;;14.00;81.20;;;;;;4920644;28;20275;-81
2023/03/25 13:45:53;;;;;;;;;;;14.00;82.00;;;;;;4966862;28;19918;-80
2023/03/25 13:48:59;;;;;;;;;;;14.10;82.10;;;;;;4971357;28;19972;-80
2023/03/25 13:51:44;;;;;;;;;;;14.10;82.30;;;;;;4965075;28;19984;-77
2023/03/25 13:54:13;;;;;;;;;;;14.20;83.10;;;;;;4948366;28;19918;-88
2023/03/25 13:56:57;;;;;;;;;;;14.30;82.60;;;;;;4953008;28;19917;-80
2023/03/25 13:59:42;;;;;;;;;;;14.30;82.60;;;;;;4954839;28;19918;-85
2023/03/25 14:02:26;;;;;;;;;;;14.40;82.60;;;;;;4939560;28;19925;-79
2023/03/25 14:05:11;;;;;;;;;;;14.40;82.30;;;;;;4964935;28;19962;-78
2023/03/25 14:07:52;;;;;;;;;;;14.50;82.60;;;;;;4965592;28;19961;-81
2023/03/25 14:10:17;;;;;;;;;;;14.50;82.40;;;;;;4937040;28;20142;-80
2023/03/25 14:12:49;;;;;;;;;;;14.50;82.10;;;;;;4951166;28;19914;-77
2023/03/25 14:15:24;;;;;;;;;;;14.60;82.00;;;;;;4964945;28;20508;-78
2023/03/25 14:20:36;;;;;;;;;;;14.70;82.00;;;;;;4950707;28;20455;-78
2023/03/25 14:23:22;;;;;;;;;;;14.70;81.60;;;;;;4951092;28;20385;-79
2023/03/25 14:25:51;;;;;;;;;;;14.80;81.60;;;;;;4965952;28;19918;-93
2023/03/25 14:28:20;;;;;;;;;;;14.80;81.50;;;;;;4948438;28;19914;-82
2023/03/25 14:31:04;;;;;;;;;;;14.80;81.40;;;;;;4966144;28;19925;-86
2023/03/25 14:33:50;;;;;;;;;;;14.90;81.30;;;;;;4980981;28;19952;-82
2023/03/25 14:36:16;;;;;;;;;;;14.90;81.30;;;;;;4957725;28;19922;-82
2023/03/25 14:38:49;;;;;;;;;;;15.00;81.00;;;;;;4966312;28;19925;-85
2023/03/25 14:41:15;;;;;;;;;;;15.00;80.90;;;;;;4964965;28;19925;-81
2023/03/25 14:43:45;;;;;;;;;;;15.00;80.70;;;;;;4950542;28;19918;-87
2023/03/25 14:46:16;;;;;;;;;;;15.00;80.60;;;;;;4934594;28;19917;-83
2023/03/25 14:48:44;;;;;;;;;;;15.10;80.70;;;;;;4936038;28;19984;-87
2023/03/25 14:57:05;;;;;;;;;;;15.10;80.10;;;;;;4950515;28;20008;-84
2023/03/25 14:59:34;;;;;;;;;;;15.10;79.90;;;;;;4965319;28;19918;-82
2023/03/25 15:02:24;;;;;;;;;;;15.10;79.70;;;;;;4946695;28;20540;-82
2023/03/25 15:05:01;;;;;;;;;;;15.20;79.80;;;;;;4947769;28;20016;-84
2023/03/25 15:07:38;;;;;;;;;;;15.20;79.60;;;;;;4981492;28;19922;-85
2023/03/25 15:10:04;;;;;;;;;;;15.30;79.70;;;;;;4950348;28;19921;-83
2023/03/25 15:12:30;;;;;;;;;;;15.30;79.50;;;;;;4966415;28;19910;-80
2023/03/25 15:15:05;;;;;;;;;;;15.30;79.40;;;;;;4965672;28;20798;-81
2023/03/25 15:17:38;;;;;;;;;;;15.30;79.30;;;;;;4970617;28;19918;-80
2023/03/25 15:20:11;;;;;;;;;;;15.30;79.20;;;;;;4951616;28;19924;-82